Time;durP1;ratioP1;P1;durP2;ratioP2;P2;SDS_P1;SDS_P2;PMS_P1;PMS_P2;Temp;Humidity;BMP_temperature;BMP_pressure;BME280_temperature;BME280_humidity;BME280_pressure;Samples;Min_cycle;Max_cycle;Signal;HPM_P1;HPM_P2
2022/05/04 03:04:06;;;;;;;16.60;5.85;;;7.60;99.90;;;;;;4941407;29;20491;-82
2022/05/04 03:06:37;;;;;;;13.35;4.25;;;7.60;99.90;;;;;;4942327;29;20035;-83
2022/05/04 03:09:03;;;;;;;13.38;4.10;;;7.60;99.90;;;;;;4926505;29;20050;-82
2022/05/04 03:14:13;;;;;;;13.88;5.00;;;7.60;99.90;;;;;;4943183;29;20387;-78
2022/05/04 03:16:42;;;;;;;11.85;3.83;;;7.70;99.90;;;;;;4942141;29;20054;-82
2022/05/04 03:19:07;;;;;;;10.18;3.85;;;7.70;99.90;;;;;;4942020;29;20047;-80
2022/05/04 03:21:34;;;;;;;13.63;3.53;;;7.70;99.90;;;;;;4942052;29;20381;-83
2022/05/04 03:24:01;;;;;;;17.15;4.82;;;7.70;99.90;;;;;;4942293;29;20514;-83
2022/05/04 03:26:27;;;;;;;10.13;3.80;;;7.80;99.90;;;;;;4942360;29;20050;-80
2022/05/04 03:28:53;;;;;;;14.73;4.72;;;7.80;99.90;;;;;;4941817;29;20423;-79
2022/05/04 03:31:19;;;;;;;11.07;3.75;;;7.80;99.90;;;;;;4942474;29;20059;-82
2022/05/04 03:33:45;;;;;;;19.08;4.57;;;7.80;99.90;;;;;;4941707;29;20047;-82
2022/05/04 03:36:11;;;;;;;13.15;4.20;;;7.80;99.90;;;;;;4942149;29;20053;-83
2022/05/04 03:38:36;;;;;;;12.10;4.65;;;7.80;99.90;;;;;;4941817;29;20039;-85
2022/05/04 03:41:02;;;;;;;15.73;4.45;;;7.80;99.90;;;;;;4941536;29;20032;-81
2022/05/04 03:43:28;;;;;;;11.07;3.83;;;7.80;99.90;;;;;;4942515;29;20035;-83
2022/05/04 03:45:54;;;;;;;10.07;4.40;;;7.80;99.90;;;;;;4958976;29;20400;-82
2022/05/04 03:48:21;;;;;;;15.32;3.75;;;7.90;99.90;;;;;;4942280;29;20043;-83
2022/05/04 03:50:47;;;;;;;12.93;4.18;;;7.80;99.90;;;;;;4942033;29;20440;-84
2022/05/04 03:53:13;;;;;;;13.68;4.00;;;7.90;99.90;;;;;;4941500;29;20054;-81
2022/05/04 03:55:39;;;;;;;8.73;3.72;;;7.90;99.90;;;;;;4958832;29;20054;-81
2022/05/04 03:58:04;;;;;;;13.48;4.18;;;7.80;99.90;;;;;;4941403;29;20047;-81
2022/05/04 04:00:30;;;;;;;15.68;4.80;;;7.90;99.90;;;;;;4941068;29;20070;-83
2022/05/04 04:02:56;;;;;;;10.20;3.70;;;7.90;99.90;;;;;;4958320;29;20073;-85
2022/05/04 04:05:23;;;;;;;12.77;3.88;;;7.90;99.90;;;;;;4941066;29;20070;-83
2022/05/04 04:07:49;;;;;;;9.63;3.58;;;7.80;99.90;;;;;;4958508;29;20522;-79
2022/05/04 04:10:16;;;;;;;10.85;4.65;;;7.80;99.90;;;;;;4940978;29;20043;-84
2022/05/04 04:12:41;;;;;;;12.77;3.88;;;7.80;99.90;;;;;;4940972;29;20118;-82
2022/05/04 04:15:07;;;;;;;12.20;4.50;;;7.80;99.90;;;;;;4941018;29;20134;-80
2022/05/04 04:17:33;;;;;;;10.90;3.53;;;7.90;99.90;;;;;;4940742;29;20043;-84
2022/05/04 04:22:43;;;;;;;10.13;3.45;;;7.90;99.90;;;;;;4941609;29;20039;-81
2022/05/04 04:25:08;;;;;;;14.10;3.35;;;7.90;99.90;;;;;;4940827;29;20170;-83
2022/05/04 04:27:35;;;;;;;11.88;3.45;;;7.90;99.90;;;;;;4941100;29;20043;-81
2022/05/04 04:30:00;;;;;;;14.52;3.88;;;7.90;99.90;;;;;;4940981;29;20047;-81
2022/05/04 04:32:26;;;;;;;9.57;4.00;;;7.90;99.90;;;;;;4941062;29;20050;-83
2022/05/04 04:34:52;;;;;;;14.45;4.30;;;7.90;99.90;;;;;;4940875;29;20066;-83
2022/05/04 04:37:17;;;;;;;14.45;4.57;;;8.00;99.90;;;;;;4958174;29;20046;-80
2022/05/04 04:39:43;;;;;;;12.48;3.75;;;8.00;99.90;;;;;;4924254;29;20075;-85
2022/05/04 04:42:08;;;;;;;10.65;3.58;;;8.00;99.90;;;;;;4957827;29;20039;-80
2022/05/04 04:44:34;;;;;;;9.27;3.58;;;8.00;99.90;;;;;;4957862;29;20079;-79
2022/05/04 04:47:00;;;;;;;9.82;2.92;;;8.00;99.90;;;;;;4940170;29;20035;-81
2022/05/04 04:49:25;;;;;;;13.80;3.20;;;8.00;99.90;;;;;;4940218;29;20138;-80
2022/05/04 04:51:51;;;;;;;8.98;2.88;;;8.10;99.90;;;;;;4956645;28;20144;-84
2022/05/04 04:54:17;;;;;;;8.77;2.97;;;8.10;99.90;;;;;;4957657;29;20506;-82
2022/05/04 04:56:43;;;;;;;11.40;3.08;;;8.10;99.90;;;;;;4940004;29;20043;-82
2022/05/04 04:59:08;;;;;;;13.93;2.97;;;8.10;99.90;;;;;;4940112;29;20502;-82
2022/05/04 05:01:34;;;;;;;8.77;3.25;;;8.10;99.90;;;;;;4957252;29;20043;-85
2022/05/04 05:04:00;;;;;;;13.43;3.33;;;8.10;99.90;;;;;;4940328;29;20047;-81
2022/05/04 05:06:25;;;;;;;10.20;2.88;;;8.10;99.90;;;;;;4939881;29;20042;-83
2022/05/04 05:08:51;;;;;;;8.13;2.95;;;8.10;99.90;;;;;;4957292;29;20079;-81
2022/05/04 05:11:17;;;;;;;10.70;3.55;;;8.10;99.90;;;;;;4939572;29;20050;-84
2022/05/04 05:16:27;;;;;;;12.50;3.53;;;8.20;99.90;;;;;;4939303;29;20059;-82
2022/05/04 05:18:52;;;;;;;7.00;2.47;;;8.20;99.90;;;;;;4939507;29;20112;-80
2022/05/04 05:21:18;;;;;;;10.30;3.45;;;8.20;99.90;;;;;;4939395;29;20032;-84
2022/05/04 05:23:44;;;;;;;15.20;3.45;;;8.30;99.90;;;;;;4923751;29;20041;-84
2022/05/04 05:26:09;;;;;;;10.43;2.78;;;8.30;99.90;;;;;;4939486;29;20458;-85
2022/05/04 05:28:35;;;;;;;10.65;2.72;;;8.30;99.90;;;;;;4957161;29;20075;-85
2022/05/04 05:31:01;;;;;;;11.30;2.70;;;8.30;99.90;;;;;;4939464;29;20403;-84
2022/05/04 05:33:26;;;;;;;9.75;2.42;;;8.30;99.90;;;;;;4939401;29;20047;-80
2022/05/04 05:35:52;;;;;;;9.00;2.70;;;8.30;99.90;;;;;;4939159;29;20467;-81
2022/05/04 05:38:17;;;;;;;10.27;2.10;;;8.30;99.90;;;;;;4938818;29;20043;-81
2022/05/04 05:40:44;;;;;;;9.60;3.00;;;8.30;99.90;;;;;;4923546;29;20179;-81
2022/05/04 05:43:10;;;;;;;8.50;2.05;;;8.30;99.90;;;;;;4939595;29;20043;-84
2022/05/04 05:45:35;;;;;;;11.02;2.50;;;8.30;99.90;;;;;;4939384;29;20479;-82
2022/05/04 05:48:01;;;;;;;10.15;2.40;;;8.30;99.90;;;;;;4939617;29;20074;-80
2022/05/04 05:50:27;;;;;;;12.20;3.15;;;8.40;99.90;;;;;;4939174;29;20495;-83
2022/05/04 05:52:53;;;;;;;13.27;2.83;;;8.50;99.90;;;;;;4939374;29;20047;-84
2022/05/04 05:55:18;;;;;;;10.93;2.55;;;8.50;99.90;;;;;;4939588;29;20035;-83
2022/05/04 05:57:44;;;;;;;8.00;2.40;;;8.50;99.90;;;;;;4939265;29;20448;-82
2022/05/04 06:00:10;;;;;;;6.53;2.00;;;8.50;99.90;;;;;;4939230;29;20050;-79
2022/05/04 06:02:36;;;;;;;11.45;2.75;;;8.40;99.90;;;;;;4938389;29;20039;-82
2022/05/04 06:05:01;;;;;;;9.52;2.50;;;8.50;99.90;;;;;;4939308;29;20472;-79
2022/05/04 06:07:27;;;;;;;12.43;2.75;;;8.50;99.90;;;;;;4938809;29;20046;-85
2022/05/04 06:09:53;;;;;;;11.27;3.65;;;8.60;99.90;;;;;;4938772;29;20051;-82
2022/05/04 06:12:18;;;;;;;7.60;2.10;;;8.60;99.90;;;;;;4923259;29;20122;-82
2022/05/04 06:14:44;;;;;;;8.95;2.92;;;8.60;99.90;;;;;;4938696;29;20047;-83
2022/05/04 06:17:12;;;;;;;8.18;2.10;;;8.70;99.90;;;;;;4938800;29;20045;-87
2022/05/04 06:19:37;;;;;;;10.90;3.10;;;8.70;99.90;;;;;;4956159;29;20496;-83
2022/05/04 06:22:03;;;;;;;7.60;2.40;;;8.70;99.90;;;;;;4938811;29;20082;-81
2022/05/04 06:24:29;;;;;;;6.15;2.63;;;8.70;99.90;;;;;;4938843;29;20047;-80
2022/05/04 06:26:54;;;;;;;9.38;2.65;;;8.80;99.90;;;;;;4938630;29;20507;-83
2022/05/04 06:29:20;;;;;;;11.38;2.47;;;8.80;99.90;;;;;;4939122;29;20056;-80
2022/05/04 06:34:29;;;;;;;6.88;2.13;;;8.80;99.90;;;;;;4938612;29;20134;-81
2022/05/04 06:36:55;;;;;;;11.85;2.53;;;8.90;99.90;;;;;;4939185;29;20135;-79
2022/05/04 06:39:20;;;;;;;7.70;2.20;;;9.00;99.90;;;;;;4955687;29;20044;-83
2022/05/04 06:41:47;;;;;;;11.88;2.20;;;9.00;99.90;;;;;;4938272;29;20055;-84
2022/05/04 06:44:13;;;;;;;10.55;1.98;;;9.10;99.90;;;;;;4938590;29;20086;-82
2022/05/04 06:46:41;;;;;;;11.07;3.05;;;9.10;99.90;;;;;;4938597;29;20062;-84
2022/05/04 06:49:09;;;;;;;11.45;2.63;;;9.10;99.90;;;;;;4956176;29;20047;-81
2022/05/04 06:51:35;;;;;;;6.95;2.25;;;9.30;99.90;;;;;;4956539;29;20118;-81
2022/05/04 06:54:01;;;;;;;7.72;2.20;;;9.20;99.90;;;;;;4938485;29;20074;-80
2022/05/04 06:56:26;;;;;;;10.27;2.28;;;9.30;99.90;;;;;;4938107;29;20175;-81
2022/05/04 06:58:52;;;;;;;9.95;2.10;;;9.30;99.90;;;;;;4938739;29;20054;-83
2022/05/04 07:01:17;;;;;;;8.02;1.98;;;9.30;99.90;;;;;;4938752;29;20039;-85
2022/05/04 07:03:43;;;;;;;6.43;2.10;;;9.40;99.90;;;;;;4938525;29;20103;-84
2022/05/04 07:06:08;;;;;;;8.85;2.70;;;9.40;99.90;;;;;;4938442;29;20118;-82
2022/05/04 07:08:34;;;;;;;9.88;2.53;;;9.40;99.90;;;;;;4938394;29;20058;-81
2022/05/04 07:11:00;;;;;;;10.93;2.40;;;9.50;99.90;;;;;;4938544;29;20102;-82
2022/05/04 07:13:26;;;;;;;11.32;2.38;;;9.50;99.90;;;;;;4938330;29;20059;-84
2022/05/04 07:15:53;;;;;;;9.50;2.40;;;9.60;99.90;;;;;;4939696;29;20075;-80
2022/05/04 07:18:18;;;;;;;12.18;2.28;;;9.70;99.90;;;;;;4958931;29;20046;-80
2022/05/04 07:20:44;;;;;;;8.93;2.00;;;9.70;99.90;;;;;;4941707;29;20035;-83
2022/05/04 07:23:10;;;;;;;7.93;2.10;;;9.70;99.90;;;;;;4941995;29;20491;-85
2022/05/04 07:25:35;;;;;;;12.15;2.65;;;9.80;99.90;;;;;;4941757;29;20043;-81
2022/05/04 07:28:01;;;;;;;8.00;2.10;;;9.80;99.90;;;;;;4941715;29;20494;-81
2022/05/04 07:30:26;;;;;;;10.48;2.58;;;9.90;99.90;;;;;;4941922;29;20092;-82
2022/05/04 07:32:52;;;;;;;8.02;2.45;;;10.10;99.90;;;;;;4940914;29;20039;-81
2022/05/04 07:35:18;;;;;;;9.25;2.38;;;10.10;99.90;;;;;;4932046;29;20053;-80
2022/05/04 07:37:44;;;;;;;9.00;2.40;;;10.20;99.90;;;;;;4922425;29;20055;-83
2022/05/04 07:42:21;;;;;;;7.82;2.45;;;10.40;99.90;;;;;;4907238;29;20054;-80
2022/05/04 07:42:57;;;;;;;7.28;2.13;;;10.50;99.90;;;;;;4930006;29;20107;-82
2022/05/04 07:45:22;;;;;;;7.75;2.20;;;10.60;99.90;;;;;;4918666;29;20040;-83
2022/05/04 07:47:48;;;;;;;6.13;1.92;;;10.70;99.90;;;;;;4920147;29;20039;-80
2022/05/04 07:50:14;;;;;;;10.93;2.60;;;10.70;99.90;;;;;;4934713;29;20509;-84
2022/05/04 07:52:41;;;;;;;9.82;2.00;;;10.80;99.90;;;;;;4941243;29;20043;-83
2022/05/04 07:55:08;;;;;;;8.48;2.45;;;10.80;99.90;;;;;;4940909;29;20051;-84
2022/05/04 07:57:33;;;;;;;8.95;2.60;;;10.70;99.90;;;;;;4940813;29;20039;-81
2022/05/04 08:05:33;;;;;;;7.95;2.10;;;10.50;99.90;;;;;;4950812;29;20047;-79
2022/05/04 08:07:58;;;;;;;6.35;2.15;;;10.50;99.90;;;;;;4951130;29;20039;-81
2022/05/04 08:10:25;;;;;;;9.10;2.25;;;10.40;99.90;;;;;;4926071;29;20046;-81
2022/05/04 08:12:51;;;;;;;12.82;2.85;;;10.40;99.90;;;;;;4941891;29;20043;-84
2022/05/04 08:15:17;;;;;;;11.30;2.53;;;10.40;99.90;;;;;;4942234;29;20047;-82
2022/05/04 08:17:43;;;;;;;6.65;2.33;;;10.40;99.90;;;;;;4958803;29;20043;-83
2022/05/04 08:20:10;;;;;;;8.68;2.20;;;10.40;99.90;;;;;;4941346;29;20058;-84
2022/05/04 08:22:35;;;;;;;7.30;2.40;;;10.50;99.90;;;;;;4925589;29;20090;-82
2022/05/04 08:25:01;;;;;;;6.93;1.75;;;10.60;99.90;;;;;;4941128;29;20043;-81
2022/05/04 08:27:28;;;;;;;7.45;2.35;;;10.70;99.90;;;;;;4939598;29;20436;-80
2022/05/04 08:29:53;;;;;;;17.92;2.33;;;10.80;99.90;;;;;;4940314;29;20448;-83
2022/05/04 08:32:19;;;;;;;11.40;2.40;;;10.90;99.90;;;;;;4940435;29;20049;-84
2022/05/04 08:34:45;;;;;;;8.55;2.35;;;11.10;99.90;;;;;;4957889;29;20043;-83
2022/05/04 08:37:10;;;;;;;10.00;2.53;;;11.60;99.90;;;;;;4958357;29;20036;-85
2022/05/04 08:39:36;;;;;;;13.93;2.05;;;11.90;99.90;;;;;;4941361;29;20054;-82
2022/05/04 08:42:03;;;;;;;9.40;2.63;;;11.90;99.90;;;;;;4940492;29;20043;-84
2022/05/04 08:44:28;;;;;;;11.02;2.78;;;11.70;99.90;;;;;;4940502;29;20122;-81
2022/05/04 08:46:59;;;;;;;5.93;2.15;;;11.60;99.90;;;;;;4941109;29;20120;-82
2022/05/04 08:49:26;;;;;;;8.15;2.40;;;11.50;99.90;;;;;;4958046;29;20452;-81
2022/05/04 08:51:54;;;;;;;8.15;2.05;;;11.20;99.90;;;;;;4957841;29;20061;-83
2022/05/04 08:54:20;;;;;;;9.88;2.10;;;11.00;99.90;;;;;;4957628;29;20047;-80
2022/05/04 08:56:45;;;;;;;9.45;2.45;;;10.80;99.90;;;;;;4940344;29;20122;-84
2022/05/04 08:59:11;;;;;;;8.20;2.25;;;10.80;99.90;;;;;;4940307;29;20098;-83
2022/05/04 09:01:37;;;;;;;8.88;2.53;;;10.60;99.90;;;;;;4957287;29;20051;-84
2022/05/04 09:04:04;;;;;;;11.00;2.08;;;10.70;99.90;;;;;;4939978;29;20043;-82
2022/05/04 09:06:32;;;;;;;11.20;2.20;;;10.80;99.90;;;;;;4940321;29;20502;-86
2022/05/04 09:09:10;;;;;;;10.73;2.75;;;10.90;99.90;;;;;;4958295;29;20507;-82
2022/05/04 09:11:46;;;;;;;18.63;2.80;;;10.90;99.90;;;;;;4957419;29;20097;-83
2022/05/04 09:14:13;;;;;;;11.57;2.53;;;11.10;99.90;;;;;;4957509;29;20039;-82
2022/05/04 09:16:40;;;;;;;11.35;2.17;;;11.20;99.90;;;;;;4940014;29;20054;-83
2022/05/04 09:19:08;;;;;;;9.05;2.25;;;11.30;99.90;;;;;;4939727;29;20051;-82
2022/05/04 09:21:34;;;;;;;8.40;2.22;;;11.70;99.90;;;;;;4939948;29;20460;-83
2022/05/04 09:24:01;;;;;;;6.43;2.30;;;12.20;99.90;;;;;;4939412;29;20061;-86
2022/05/04 09:26:26;;;;;;;9.57;2.45;;;13.00;99.90;;;;;;4956863;29;20045;-83
2022/05/04 09:28:58;;;;;;;5.72;2.20;;;13.70;99.90;;;;;;4939918;29;20049;-79
2022/05/04 09:31:25;;;;;;;10.13;2.45;;;13.90;99.90;;;;;;4936144;29;20046;-82
2022/05/04 09:34:06;;;;;;;11.80;2.53;;;13.90;99.90;;;;;;4928773;29;20138;-82
2022/05/04 09:36:36;;;;;;;9.48;2.22;;;13.70;99.90;;;;;;4948085;29;20045;-80
2022/05/04 09:45:09;;;;;;;13.27;2.80;;;13.40;99.90;;;;;;4947785;29;20035;-84
2022/05/04 09:47:47;;;;;;;6.90;2.25;;;13.60;99.90;;;;;;4930096;29;20039;-82
2022/05/04 09:50:17;;;;;;;6.35;2.20;;;13.70;99.90;;;;;;4929946;29;20480;-81
2022/05/04 09:52:48;;;;;;;9.02;2.38;;;13.80;99.90;;;;;;4922324;29;20163;-83
2022/05/04 09:55:22;;;;;;;9.15;2.17;;;13.90;99.90;;;;;;4920395;29;20043;-81
2022/05/04 09:57:49;;;;;;;11.17;2.33;;;14.20;99.90;;;;;;4920288;29;20511;-80
2022/05/04 10:00:19;;;;;;;7.28;2.30;;;14.40;99.90;;;;;;4919538;29;20092;-86
2022/05/04 10:02:45;;;;;;;8.40;2.00;;;14.50;99.90;;;;;;4920245;29;20051;-86
2022/05/04 10:05:12;;;;;;;11.02;2.40;;;14.50;99.90;;;;;;4920220;29;20044;-83
2022/05/04 10:07:38;;;;;;;8.75;2.88;;;14.00;99.90;;;;;;4920002;29;20447;-84
2022/05/04 10:10:05;;;;;;;7.90;2.38;;;13.90;99.90;;;;;;4919927;29;20127;-85
2022/05/04 10:12:38;;;;;;;6.82;2.38;;;13.80;99.90;;;;;;4936839;29;20512;-83
2022/05/04 10:15:10;;;;;;;7.82;2.42;;;14.00;99.90;;;;;;4920471;29;20047;-81
2022/05/04 10:17:43;;;;;;;5.47;2.10;;;14.20;99.90;;;;;;4920403;29;20055;-83
2022/05/04 10:20:39;;;;;;;9.73;2.42;;;14.10;99.90;;;;;;4920282;29;20055;-84
2022/05/04 10:23:15;;;;;;;13.15;2.78;;;13.90;99.90;;;;;;4905072;29;20133;-83
2022/05/04 10:25:42;;;;;;;8.05;2.55;;;13.60;99.90;;;;;;4920303;29;20392;-81
2022/05/04 10:28:15;;;;;;;8.23;2.83;;;13.80;99.90;;;;;;4919753;29;20058;-82
2022/05/04 10:30:52;;;;;;;6.93;2.40;;;13.90;99.90;;;;;;4919758;29;20058;-81
2022/05/04 10:33:23;;;;;;;8.95;2.55;;;14.20;99.90;;;;;;4920111;29;20056;-84
2022/05/04 10:35:49;;;;;;;11.48;2.30;;;14.40;99.90;;;;;;4903984;29;20055;-84
2022/05/04 10:38:27;;;;;;;8.05;2.95;;;14.60;99.70;;;;;;4920323;29;20404;-82
2022/05/04 10:41:02;;;;;;;11.25;2.80;;;14.60;98.80;;;;;;4920391;29;20040;-83
2022/05/04 10:43:41;;;;;;;9.90;2.40;;;14.50;98.70;;;;;;4936893;29;20043;-83
2022/05/04 10:46:12;;;;;;;9.07;2.50;;;14.40;99.40;;;;;;4919913;29;20043;-83
2022/05/04 10:48:44;;;;;;;6.80;2.90;;;14.50;99.40;;;;;;4919560;29;20083;-81
2022/05/04 10:51:19;;;;;;;7.95;2.53;;;14.80;99.50;;;;;;4921886;29;20043;-85
2022/05/04 10:53:50;;;;;;;8.60;2.40;;;15.10;99.30;;;;;;4923514;29;20094;-85
2022/05/04 10:56:24;;;;;;;13.52;3.17;;;15.30;98.90;;;;;;4923735;29;20455;-83
2022/05/04 10:58:49;;;;;;;9.32;2.40;;;15.20;97.80;;;;;;4924120;29;20020;-84
2022/05/04 11:01:20;;;;;;;11.95;2.60;;;15.20;97.00;;;;;;4923507;29;20098;-82
2022/05/04 11:04:11;;;;;;;6.93;2.05;;;15.40;97.00;;;;;;4923067;29;20506;-82
2022/05/04 11:06:37;;;;;;;11.95;3.00;;;15.40;96.70;;;;;;4923507;29;20106;-81
2022/05/04 11:09:10;;;;;;;9.15;2.80;;;15.60;96.90;;;;;;4923216;29;20480;-84
2022/05/04 11:11:38;;;;;;;10.77;3.28;;;15.70;96.00;;;;;;4923121;29;20480;-83
2022/05/04 11:14:05;;;;;;;10.85;3.42;;;15.40;95.30;;;;;;4923077;29;20048;-82
2022/05/04 11:16:31;;;;;;;5.95;2.35;;;15.40;95.10;;;;;;4923028;29;20051;-83
2022/05/04 11:19:01;;;;;;;8.68;2.70;;;15.50;95.40;;;;;;4939445;29;20488;-82
2022/05/04 11:21:28;;;;;;;7.65;2.60;;;15.30;94.10;;;;;;4940582;29;20039;-83
2022/05/04 11:23:59;;;;;;;9.25;2.40;;;15.20;93.70;;;;;;4923762;29;20050;-83
2022/05/04 11:26:27;;;;;;;8.23;2.47;;;15.20;92.70;;;;;;4935914;29;20039;-84
2022/05/04 11:28:54;;;;;;;9.82;2.42;;;15.20;94.50;;;;;;4934325;29;20055;-81
2022/05/04 11:31:21;;;;;;;10.90;2.47;;;15.30;93.80;;;;;;4925868;29;20399;-84
2022/05/04 11:33:48;;;;;;;10.50;2.58;;;15.20;94.00;;;;;;4940174;29;20135;-83
2022/05/04 11:36:21;;;;;;;5.75;2.55;;;15.50;94.60;;;;;;4923274;29;20040;-81
2022/05/04 11:38:48;;;;;;;11.75;2.90;;;15.70;94.10;;;;;;4939830;29;20543;-80
2022/05/04 11:41:15;;;;;;;7.65;2.65;;;15.90;94.20;;;;;;4940092;29;20036;-82
2022/05/04 11:43:41;;;;;;;8.57;3.03;;;15.90;94.00;;;;;;4940347;29;20118;-86
2022/05/04 11:46:09;;;;;;;8.45;2.42;;;16.00;94.20;;;;;;4924368;29;20469;-83
2022/05/04 11:48:47;;;;;;;8.55;2.90;;;16.30;94.00;;;;;;4923201;29;20059;-83
2022/05/04 11:51:16;;;;;;;7.00;2.88;;;16.40;93.20;;;;;;4939560;29;20052;-84
2022/05/04 11:53:41;;;;;;;11.02;2.83;;;16.50;92.90;;;;;;4922412;29;20075;-82
2022/05/04 11:56:08;;;;;;;8.80;2.65;;;16.70;92.90;;;;;;4906583;29;20543;-83
2022/05/04 11:58:35;;;;;;;8.77;2.97;;;16.40;91.70;;;;;;4922161;29;20095;-83
2022/05/04 12:01:03;;;;;;;15.73;3.22;;;16.40;91.40;;;;;;4921861;29;20047;-83
2022/05/04 12:03:30;;;;;;;5.63;2.42;;;16.50;91.00;;;;;;4923099;29;20040;-82
2022/05/04 12:05:57;;;;;;;7.80;2.40;;;16.40;91.40;;;;;;4922372;29;20217;-82
2022/05/04 12:08:24;;;;;;;9.30;2.97;;;16.60;91.20;;;;;;4939359;29;20071;-81
2022/05/04 12:10:50;;;;;;;10.40;2.90;;;16.50;90.40;;;;;;4906009;29;20069;-81
2022/05/04 12:13:24;;;;;;;7.63;2.83;;;16.30;90.40;;;;;;4922864;29;20051;-83
2022/05/04 12:15:54;;;;;;;7.28;2.55;;;16.50;89.30;;;;;;4932023;29;20540;-83
2022/05/04 12:18:21;;;;;;;7.53;2.65;;;16.30;89.20;;;;;;4957888;29;20126;-85
2022/05/04 12:20:47;;;;;;;5.38;2.60;;;16.70;90.90;;;;;;4940688;29;20046;-81
2022/05/04 12:23:14;;;;;;;7.10;3.03;;;16.80;88.90;;;;;;4958127;29;20043;-84
2022/05/04 12:25:41;;;;;;;9.30;2.83;;;16.80;86.00;;;;;;4940949;29;20082;-82
2022/05/04 12:28:08;;;;;;;8.50;3.15;;;16.70;86.40;;;;;;4940667;29;20046;-81
2022/05/04 12:33:32;;;;;;;9.38;3.00;;;17.00;87.90;;;;;;4940743;29;20051;-84
2022/05/04 12:36:00;;;;;;;11.25;3.15;;;17.20;85.10;;;;;;4924540;29;20050;-82
2022/05/04 12:38:26;;;;;;;10.60;3.15;;;17.20;85.90;;;;;;4940365;29;20074;-84
2022/05/04 12:40:53;;;;;;;9.57;3.03;;;17.30;87.90;;;;;;4957295;29;20404;-84
2022/05/04 12:43:19;;;;;;;12.18;3.03;;;17.50;87.30;;;;;;4940243;29;20439;-84
2022/05/04 12:45:47;;;;;;;8.00;3.20;;;17.70;85.10;;;;;;4940012;29;20388;-84
2022/05/04 12:48:13;;;;;;;7.68;2.90;;;17.70;84.50;;;;;;4939833;29;20490;-84
2022/05/04 12:50:39;;;;;;;11.63;3.35;;;17.40;82.20;;;;;;4957610;29;20122;-81
2022/05/04 12:53:05;;;;;;;8.55;3.30;;;17.50;82.80;;;;;;4939612;29;20484;-81
2022/05/04 12:58:17;;;;;;;8.15;3.50;;;17.40;80.20;;;;;;4939075;29;20058;-83
2022/05/04 13:00:42;;;;;;;43.97;5.30;;;16.90;80.30;;;;;;4939179;29;20557;-83
2022/05/04 13:03:12;;;;;;;58.45;7.28;;;16.90;81.60;;;;;;4939277;29;20118;-85
2022/05/04 13:05:39;;;;;;;12.73;3.22;;;17.00;82.10;;;;;;4956982;29;20074;-82
2022/05/04 13:08:05;;;;;;;13.02;3.90;;;17.40;82.20;;;;;;4939581;29;20117;-82
2022/05/04 13:10:31;;;;;;;9.80;3.15;;;17.70;80.80;;;;;;4924870;29;20058;-82
2022/05/04 13:12:58;;;;;;;8.57;2.90;;;17.90;81.20;;;;;;4939198;29;20171;-83
2022/05/04 13:15:24;;;;;;;5.35;2.90;;;18.20;79.80;;;;;;4939866;29;20047;-82
2022/05/04 13:17:50;;;;;;;7.07;3.70;;;18.30;79.20;;;;;;4957796;29;20038;-82
2022/05/04 13:20:16;;;;;;;9.50;3.22;;;18.40;78.90;;;;;;4956992;29;20050;-81
2022/05/04 13:22:41;;;;;;;7.30;3.10;;;18.70;78.40;;;;;;4939596;29;20122;-80
2022/05/04 13:25:10;;;;;;;8.65;3.17;;;18.70;78.00;;;;;;4939310;29;20043;-82
2022/05/04 13:27:36;;;;;;;7.25;3.20;;;18.90;77.50;;;;;;4940410;29;20039;-81
2022/05/04 13:30:03;;;;;;;8.77;3.33;;;19.10;76.30;;;;;;4939832;29;20455;-81
2022/05/04 13:32:28;;;;;;;8.80;3.70;;;19.00;74.70;;;;;;4938806;29;20062;-83
2022/05/04 13:34:54;;;;;;;11.60;3.20;;;19.10;74.40;;;;;;4956980;29;20035;-82
2022/05/04 13:37:19;;;;;;;7.82;3.25;;;18.90;74.70;;;;;;4939164;29;20074;-82
2022/05/04 13:39:45;;;;;;;8.10;3.35;;;19.00;74.70;;;;;;4939321;29;20054;-81
2022/05/04 13:42:12;;;;;;;8.98;3.28;;;19.00;74.80;;;;;;4957654;29;20114;-83
2022/05/04 13:44:38;;;;;;;6.60;3.28;;;19.20;75.80;;;;;;4932220;29;20043;-79
2022/05/04 13:47:04;;;;;;;8.57;3.80;;;19.30;75.30;;;;;;4934907;29;20114;-76
2022/05/04 13:49:30;;;;;;;13.48;3.53;;;19.40;74.80;;;;;;4946609;29;20043;-80
2022/05/04 13:54:39;;;;;;;6.93;3.60;;;19.40;73.40;;;;;;4938955;29;20074;-79
2022/05/04 13:57:05;;;;;;;8.43;3.45;;;19.30;73.40;;;;;;4940858;29;20083;-79
2022/05/04 13:59:30;;;;;;;9.40;3.72;;;19.50;74.00;;;;;;4938907;29;20496;-80
2022/05/04 14:01:56;;;;;;;11.38;4.40;;;19.60;74.10;;;;;;4935382;29;20440;-81
2022/05/04 14:04:22;;;;;;;11.95;3.88;;;19.50;73.60;;;;;;4910282;29;21631;-84
2022/05/04 14:06:48;;;;;;;7.43;3.47;;;19.40;73.30;;;;;;4913449;29;20373;-81
2022/05/04 14:09:14;;;;;;;9.52;3.58;;;19.60;73.60;;;;;;4927504;29;20481;-85
2022/05/04 14:11:40;;;;;;;11.55;3.47;;;19.70;72.50;;;;;;4936338;29;20055;-84
2022/05/04 14:16:50;;;;;;;11.57;4.00;;;19.50;70.80;;;;;;4938738;29;20061;-85
2022/05/04 14:19:15;;;;;;;17.05;4.30;;;19.20;71.40;;;;;;4938863;29;20474;-86
2022/05/04 14:21:41;;;;;;;10.38;3.90;;;19.30;71.90;;;;;;4938565;29;20047;-82
2022/05/04 14:24:06;;;;;;;10.45;3.92;;;19.40;71.80;;;;;;4937456;28;20119;-82
2022/05/04 14:26:32;;;;;;;10.93;3.75;;;19.50;72.30;;;;;;4935268;29;20480;-81
2022/05/04 14:28:59;;;;;;;11.63;4.25;;;19.70;73.10;;;;;;4956403;29;20039;-83
2022/05/04 14:31:25;;;;;;;8.63;4.28;;;19.80;71.80;;;;;;4939013;29;20134;-82
2022/05/04 14:33:50;;;;;;;9.15;4.30;;;19.70;70.00;;;;;;4938952;29;20090;-79
2022/05/04 14:36:16;;;;;;;8.07;3.80;;;19.40;70.20;;;;;;4922877;29;20039;-81
2022/05/04 14:38:41;;;;;;;9.57;4.28;;;19.30;71.10;;;;;;4931104;29;20071;-82
2022/05/04 14:41:07;;;;;;;8.48;3.90;;;19.30;71.50;;;;;;4930497;29;20507;-83
2022/05/04 14:43:32;;;;;;;8.40;3.75;;;19.50;71.40;;;;;;4921886;29;20051;-80
2022/05/04 14:45:58;;;;;;;8.88;3.88;;;19.70;71.30;;;;;;4919777;29;20392;-81
2022/05/04 14:48:24;;;;;;;8.32;3.38;;;19.80;71.00;;;;;;4919858;29;20047;-81
2022/05/04 14:50:50;;;;;;;6.75;3.70;;;19.70;68.90;;;;;;4936920;29;20484;-80
2022/05/04 14:53:16;;;;;;;9.95;3.35;;;19.40;68.40;;;;;;4919573;29;20058;-83
2022/05/04 14:55:41;;;;;;;10.05;4.22;;;19.20;69.00;;;;;;4936664;29;20050;-83
2022/05/04 14:58:07;;;;;;;9.77;3.80;;;19.20;69.20;;;;;;4919786;29;20055;-80
2022/05/04 15:00:32;;;;;;;7.40;3.65;;;18.90;68.00;;;;;;4903735;29;20111;-83
2022/05/04 15:05:42;;;;;;;9.35;3.92;;;19.00;68.50;;;;;;4919518;29;20131;-82
2022/05/04 15:08:08;;;;;;;10.25;3.40;;;18.90;68.90;;;;;;4920020;29;20123;-82
2022/05/04 15:10:33;;;;;;;9.82;3.88;;;19.10;69.60;;;;;;4936838;29;20044;-83
2022/05/04 15:12:59;;;;;;;16.83;3.95;;;19.30;70.10;;;;;;4919234;29;20051;-82
2022/05/04 15:15:26;;;;;;;9.63;3.50;;;19.50;70.40;;;;;;4919870;29;20051;-83
2022/05/04 15:17:52;;;;;;;8.60;3.65;;;19.80;70.70;;;;;;4919738;29;20044;-83
2022/05/04 15:20:18;;;;;;;7.03;3.60;;;20.10;70.20;;;;;;4919632;29;20058;-82
2022/05/04 15:22:44;;;;;;;10.43;4.65;;;20.20;69.30;;;;;;4919630;29;20036;-83
2022/05/04 15:25:09;;;;;;;10.65;4.32;;;20.00;67.10;;;;;;4936995;29;20039;-80
2022/05/04 15:27:35;;;;;;;9.82;4.00;;;19.70;68.10;;;;;;4919423;29;20122;-79
2022/05/04 15:30:01;;;;;;;10.85;3.67;;;19.20;69.30;;;;;;4919644;29;20055;-81
2022/05/04 15:32:27;;;;;;;9.30;3.92;;;19.20;70.30;;;;;;4919199;29;20513;-83
2022/05/04 15:34:52;;;;;;;14.05;4.55;;;19.30;70.50;;;;;;4919013;29;20127;-82
2022/05/04 15:37:18;;;;;;;13.45;4.20;;;19.20;69.70;;;;;;4920905;29;20103;-80
2022/05/04 15:39:44;;;;;;;9.23;4.13;;;18.80;70.30;;;;;;4923176;29;20059;-83
2022/05/04 15:42:09;;;;;;;9.90;4.63;;;18.90;71.70;;;;;;4939752;29;20361;-83
2022/05/04 15:44:35;;;;;;;8.73;3.70;;;18.80;70.90;;;;;;4906972;29;20437;-83
2022/05/04 15:47:02;;;;;;;6.72;3.60;;;18.90;71.60;;;;;;4922310;29;20040;-82
2022/05/04 15:49:28;;;;;;;7.88;3.80;;;19.00;71.70;;;;;;4939392;29;20053;-83
2022/05/04 15:51:53;;;;;;;6.22;4.13;;;19.20;71.60;;;;;;4906820;29;20130;-81
2022/05/04 15:54:19;;;;;;;7.18;4.03;;;19.30;72.20;;;;;;4922385;29;20043;-81
2022/05/04 15:56:51;;;;;;;12.50;4.28;;;19.20;71.40;;;;;;4906696;29;20468;-80
2022/05/04 15:59:17;;;;;;;8.48;4.22;;;19.40;73.20;;;;;;4906513;29;20044;-79
2022/05/04 16:01:43;;;;;;;11.35;4.13;;;19.30;72.30;;;;;;4921801;29;20452;-81
2022/05/04 16:04:12;;;;;;;7.22;3.80;;;19.10;73.10;;;;;;4922401;29;20050;-78
2022/05/04 16:06:38;;;;;;;7.80;4.22;;;18.80;73.10;;;;;;4906422;29;20131;-82
2022/05/04 16:09:05;;;;;;;13.40;4.10;;;18.80;73.40;;;;;;4921962;29;20040;-81
2022/05/04 16:11:32;;;;;;;9.52;4.63;;;18.70;73.30;;;;;;4921923;29;20051;-81
2022/05/04 16:13:58;;;;;;;11.95;4.13;;;18.70;73.40;;;;;;4939001;29;20123;-80
2022/05/04 16:16:24;;;;;;;9.45;4.53;;;18.50;74.40;;;;;;4921993;29;20503;-81
2022/05/04 16:21:44;;;;;;;10.77;4.60;;;17.90;74.50;;;;;;4921861;29;20043;-82
2022/05/04 16:24:17;;;;;;;7.38;3.78;;;17.90;74.70;;;;;;4922176;29;20149;-84
2022/05/04 16:26:48;;;;;;;11.07;4.38;;;17.80;75.80;;;;;;4922043;29;20050;-79